Time;durP1;ratioP1;P1;durP2;ratioP2;P2;SDS_P1;SDS_P2;PMS_P1;PMS_P2;Temp;Humidity;BMP_temperature;BMP_pressure;BME280_temperature;BME280_humidity;BME280_pressure;Samples;Min_cycle;Max_cycle;Signal;HPM_P1;HPM_P2
2022/01/13 00:01:30;;;;;;;13.20;8.33;;;0.40;96.30;;;;;;4906931;29;20870;-71
2022/01/13 00:03:57;;;;;;;13.70;8.13;;;0.40;96.30;;;;;;4917361;29;20586;-71
2022/01/13 00:06:23;;;;;;;11.60;7.10;;;0.50;96.30;;;;;;4917283;29;20423;-71
2022/01/13 00:08:48;;;;;;;10.17;7.03;;;0.50;96.30;;;;;;4915798;29;20424;-73
2022/01/13 00:50:05;;;;;;;7.50;5.30;;;0.50;96.30;;;;;;5163719;23;20473;-72
2022/01/13 00:55:09;;;;;;;7.83;5.57;;;0.50;96.30;;;;;;5741910;23;20575;-71
2022/01/13 00:57:35;;;;;;;10.97;6.47;;;0.50;96.30;;;;;;4915166;29;20420;-72
2022/01/13 01:00:00;;;;;;;9.43;5.10;;;0.50;96.30;;;;;;4916495;29;20408;-73
2022/01/13 05:01:31;;;;;;;8.17;5.03;;;-0.60;96.30;;;;;;5351667;23;20530;-73
2022/01/13 05:03:57;;;;;;;4.73;4.10;;;-0.50;96.30;;;;;;4884343;29;20462;-73
2022/01/13 05:06:22;;;;;;;7.30;5.20;;;-0.50;96.30;;;;;;4892852;29;20268;-73
2022/01/13 05:08:49;;;;;;;7.90;4.67;;;-0.40;96.30;;;;;;4911485;29;20684;-73
2022/01/13 05:11:15;;;;;;;4.47;3.80;;;-0.40;96.30;;;;;;4895351;29;20220;-72
2022/01/13 05:13:41;;;;;;;7.57;4.30;;;-0.30;96.30;;;;;;4897355;29;21035;-70
2022/01/13 05:16:10;;;;;;;4.20;3.37;;;-0.20;96.30;;;;;;4896169;29;20413;-71
2022/01/13 05:18:48;;;;;;;5.53;4.70;;;-0.10;96.30;;;;;;4897311;29;20169;-70
2022/01/13 05:26:24;;;;;;;6.37;4.90;;;0.00;96.30;;;;;;5382507;23;20496;-70
2022/01/13 05:28:50;;;;;;;5.17;4.20;;;0.00;96.30;;;;;;4916110;29;20415;-70
2022/01/13 05:31:15;;;;;;;5.60;4.77;;;0.00;96.30;;;;;;4914806;29;20219;-70
2022/01/13 05:33:42;;;;;;;9.23;4.87;;;0.10;96.30;;;;;;4915507;29;20679;-72
2022/01/13 05:36:07;;;;;;;13.23;4.37;;;0.10;96.30;;;;;;4902079;29;20173;-73
2022/01/13 05:38:33;;;;;;;7.13;3.87;;;0.00;96.30;;;;;;4895906;29;20508;-70
2022/01/13 05:40:58;;;;;;;4.63;4.20;;;0.00;96.30;;;;;;4896942;29;20200;-71
2022/01/13 05:43:27;;;;;;;10.10;4.40;;;0.00;96.30;;;;;;4896456;29;20184;-70
2022/01/13 05:45:52;;;;;;;9.00;3.90;;;0.00;96.30;;;;;;4895635;29;20645;-70
2022/01/13 05:48:18;;;;;;;5.27;3.93;;;0.10;96.30;;;;;;4897047;29;20420;-70
2022/01/13 05:50:44;;;;;;;6.03;4.47;;;0.10;96.30;;;;;;4896835;29;20193;-70
2022/01/13 05:53:09;;;;;;;5.67;4.53;;;0.10;96.30;;;;;;4896876;29;20212;-69
2022/01/13 05:55:35;;;;;;;6.33;4.17;;;0.10;96.30;;;;;;4896865;29;20973;-69
2022/01/13 05:58:02;;;;;;;5.87;5.27;;;0.10;96.30;;;;;;4896877;29;20169;-69
2022/01/13 06:00:28;;;;;;;4.90;4.33;;;0.10;96.30;;;;;;4897073;29;20257;-72
2022/01/13 06:02:53;;;;;;;6.53;4.60;;;0.10;96.30;;;;;;4897131;29;20410;-70
2022/01/13 06:05:20;;;;;;;4.93;4.43;;;0.10;96.30;;;;;;4896418;29;20576;-71
2022/01/13 06:07:46;;;;;;;4.83;3.80;;;0.20;96.30;;;;;;4897045;29;20177;-70
2022/01/13 06:10:18;;;;;;;4.60;3.83;;;0.20;96.30;;;;;;4897128;29;20806;-75
2022/01/13 06:12:43;;;;;;;7.27;4.30;;;0.30;96.30;;;;;;4896506;29;20490;-74
2022/01/13 06:15:11;;;;;;;6.10;3.73;;;0.30;96.30;;;;;;4896335;29;20901;-74
2022/01/13 06:17:38;;;;;;;5.17;4.00;;;0.30;96.30;;;;;;4910066;29;20259;-75
2022/01/13 06:20:05;;;;;;;6.30;4.70;;;0.30;96.30;;;;;;4916545;29;20420;-75
2022/01/13 06:22:31;;;;;;;8.73;4.87;;;0.40;96.30;;;;;;4919183;29;20495;-74
2022/01/13 06:24:56;;;;;;;9.40;4.40;;;0.40;96.30;;;;;;4917758;29;20429;-75
2022/01/13 06:27:23;;;;;;;5.53;3.53;;;0.30;96.30;;;;;;4917412;29;20641;-74
2022/01/13 06:29:52;;;;;;;4.80;3.40;;;0.40;96.30;;;;;;4917984;29;20176;-76
2022/01/13 06:32:19;;;;;;;6.57;4.30;;;0.40;96.30;;;;;;4900420;29;20461;-76
2022/01/13 06:34:44;;;;;;;6.90;5.33;;;0.40;96.30;;;;;;4902072;29;20416;-75
2022/01/13 06:37:10;;;;;;;6.10;4.13;;;0.40;96.30;;;;;;4918460;29;20912;-75
2022/01/13 06:39:35;;;;;;;9.83;5.20;;;0.40;96.30;;;;;;4899888;29;20180;-74
2022/01/13 06:42:01;;;;;;;3.23;2.93;;;0.40;96.30;;;;;;4899811;29;20279;-75
2022/01/13 06:44:26;;;;;;;6.40;4.27;;;0.40;96.30;;;;;;4899072;29;20169;-75
2022/01/13 06:46:52;;;;;;;6.97;3.90;;;0.40;96.30;;;;;;4909295;29;20189;-73
2022/01/13 06:49:18;;;;;;;5.60;3.93;;;0.50;96.30;;;;;;4899884;29;20178;-74
2022/01/13 06:51:43;;;;;;;5.07;3.60;;;0.50;96.30;;;;;;4899347;29;20545;-75
2022/01/13 06:54:08;;;;;;;8.87;4.10;;;0.50;96.30;;;;;;4898959;29;20676;-74
2022/01/13 06:56:34;;;;;;;4.87;3.73;;;0.50;96.30;;;;;;4903243;29;20200;-74
2022/01/13 06:59:04;;;;;;;8.27;3.63;;;0.60;96.30;;;;;;4893634;29;20189;-74
2022/01/13 07:01:30;;;;;;;7.23;3.90;;;0.60;96.30;;;;;;4903660;29;20257;-73
2022/01/13 07:03:56;;;;;;;6.50;3.90;;;0.50;96.30;;;;;;4903845;29;20425;-75
2022/01/13 07:06:21;;;;;;;4.47;3.47;;;0.60;96.30;;;;;;4898087;29;20712;-74
2022/01/13 07:08:46;;;;;;;6.23;3.50;;;0.60;96.30;;;;;;4897667;29;20228;-73
2022/01/13 07:11:12;;;;;;;5.43;3.77;;;0.60;96.30;;;;;;4895978;29;20208;-73
2022/01/13 07:13:38;;;;;;;6.40;3.63;;;0.70;96.30;;;;;;4912421;29;20765;-75
2022/01/13 07:16:04;;;;;;;5.67;3.10;;;0.70;96.30;;;;;;4909671;29;20643;-75
2022/01/13 07:18:31;;;;;;;7.20;3.73;;;0.70;96.30;;;;;;4904324;29;20185;-75
2022/01/13 07:20:57;;;;;;;5.13;3.13;;;0.70;96.30;;;;;;4912972;29;20449;-73
2022/01/13 07:23:22;;;;;;;9.33;3.50;;;0.80;96.30;;;;;;4910938;29;20542;-75
2022/01/13 07:25:49;;;;;;;7.00;4.07;;;0.80;96.30;;;;;;4909111;29;20965;-75
2022/01/13 07:28:15;;;;;;;6.60;3.53;;;0.80;96.30;;;;;;4899400;29;20188;-74
2022/01/13 07:30:40;;;;;;;6.83;3.43;;;0.80;96.30;;;;;;4899179;29;20472;-71
2022/01/13 07:33:06;;;;;;;6.97;3.17;;;0.80;96.30;;;;;;4898440;29;20208;-75
2022/01/13 07:35:31;;;;;;;4.50;3.07;;;0.80;96.30;;;;;;4899161;29;20185;-72
2022/01/13 07:37:58;;;;;;;9.20;3.60;;;0.90;96.30;;;;;;4898135;29;20898;-71
2022/01/13 07:40:23;;;;;;;5.10;3.37;;;0.90;96.30;;;;;;4902237;29;20181;-73
2022/01/13 07:42:49;;;;;;;6.97;3.50;;;1.00;96.30;;;;;;4899097;29;20936;-70
2022/01/13 07:45:18;;;;;;;5.40;3.17;;;1.00;96.30;;;;;;4898809;29;20252;-71
2022/01/13 07:47:44;;;;;;;5.23;2.87;;;1.00;96.30;;;;;;4901314;29;20200;-73
2022/01/13 07:50:12;;;;;;;7.63;2.80;;;1.00;96.30;;;;;;4898886;29;20417;-74
2022/01/13 07:52:37;;;;;;;7.30;3.37;;;1.00;96.30;;;;;;4912445;29;20526;-71
2022/01/13 07:55:03;;;;;;;13.63;4.00;;;1.10;96.30;;;;;;4917347;29;20412;-71
2022/01/13 07:57:29;;;;;;;3.80;2.50;;;1.10;96.30;;;;;;4917402;29;20594;-71
2022/01/13 07:59:56;;;;;;;7.57;3.90;;;1.10;96.30;;;;;;4917370;29;20408;-71
2022/01/13 08:02:22;;;;;;;10.37;4.13;;;1.00;96.30;;;;;;4917331;29;20192;-71
2022/01/13 08:04:49;;;;;;;6.03;3.43;;;1.00;96.30;;;;;;4915896;29;21113;-71
2022/01/13 08:07:17;;;;;;;4.40;3.00;;;1.00;96.30;;;;;;4917360;29;20640;-72
2022/01/13 08:09:42;;;;;;;8.20;3.80;;;1.00;96.30;;;;;;4914299;29;20511;-71
2022/01/13 08:12:08;;;;;;;11.13;3.73;;;1.00;96.30;;;;;;4908860;29;21005;-71
2022/01/13 08:14:34;;;;;;;9.27;3.73;;;1.00;96.30;;;;;;4916956;29;20176;-71
2022/01/13 08:17:02;;;;;;;7.50;3.60;;;1.10;96.30;;;;;;4915848;29;20924;-71
2022/01/13 08:19:46;;;;;;;5.47;2.93;;;1.10;96.30;;;;;;4911092;29;20180;-72
2022/01/13 08:22:12;;;;;;;5.50;3.63;;;1.20;96.30;;;;;;4902385;29;20929;-71
2022/01/13 08:24:38;;;;;;;10.50;3.80;;;1.20;96.30;;;;;;4906118;29;20417;-71
2022/01/13 08:27:04;;;;;;;6.90;3.97;;;1.20;96.30;;;;;;4897952;29;20429;-71
2022/01/13 08:29:30;;;;;;;6.40;3.67;;;1.30;96.30;;;;;;4898038;29;20181;-72
2022/01/13 08:31:55;;;;;;;10.97;4.43;;;1.40;96.30;;;;;;4912189;29;20449;-71
2022/01/13 08:34:21;;;;;;;7.70;3.93;;;1.50;96.30;;;;;;4902999;29;20232;-75
2022/01/13 08:36:46;;;;;;;6.83;3.57;;;1.50;96.30;;;;;;4899712;29;20180;-75
2022/01/13 08:39:12;;;;;;;8.23;4.27;;;1.50;96.30;;;;;;4916635;29;20240;-75
2022/01/13 08:41:39;;;;;;;7.30;3.90;;;1.50;96.30;;;;;;4912861;29;20208;-75
2022/01/13 08:44:05;;;;;;;11.90;4.77;;;1.50;96.30;;;;;;4915089;29;20459;-74
2022/01/13 08:46:30;;;;;;;9.07;3.30;;;1.50;96.30;;;;;;4916480;29;20474;-74
2022/01/13 08:48:56;;;;;;;13.10;4.40;;;1.50;96.30;;;;;;4916517;29;20716;-74
2022/01/13 08:51:22;;;;;;;8.87;3.40;;;1.50;96.30;;;;;;4916496;29;20204;-75
2022/01/13 08:53:47;;;;;;;9.10;3.90;;;1.50;96.30;;;;;;4916026;29;20579;-75
2022/01/13 08:56:14;;;;;;;7.30;4.10;;;1.50;96.30;;;;;;4915123;29;20544;-75
2022/01/13 08:58:39;;;;;;;9.17;4.03;;;1.60;96.30;;;;;;4916178;29;20176;-74
2022/01/13 09:01:07;;;;;;;8.20;4.57;;;1.60;96.30;;;;;;4916442;29;20432;-74
2022/01/13 09:03:35;;;;;;;7.90;3.73;;;1.80;96.30;;;;;;4915949;29;20216;-73
2022/01/13 09:06:02;;;;;;;10.23;4.17;;;2.00;96.30;;;;;;4916296;29;20424;-75
2022/01/13 09:08:27;;;;;;;8.30;3.70;;;2.10;96.30;;;;;;4916283;29;20515;-74
2022/01/13 09:10:53;;;;;;;10.70;5.20;;;2.20;96.30;;;;;;4911553;29;20477;-75
2022/01/13 09:13:18;;;;;;;6.90;3.53;;;2.20;96.30;;;;;;4898951;29;20209;-72
2022/01/13 09:15:50;;;;;;;7.93;3.40;;;2.20;96.30;;;;;;4915304;29;20591;-74
2022/01/13 09:18:19;;;;;;;14.87;4.87;;;2.20;96.30;;;;;;4905091;29;20193;-74
2022/01/13 09:20:47;;;;;;;5.83;3.80;;;2.30;96.30;;;;;;4897092;29;20432;-72
2022/01/13 09:23:13;;;;;;;7.07;3.70;;;2.40;96.30;;;;;;4904757;29;20492;-73
2022/01/13 09:25:39;;;;;;;9.10;3.90;;;2.50;96.30;;;;;;4915802;29;20503;-74
2022/01/13 09:28:06;;;;;;;5.60;2.90;;;2.50;96.30;;;;;;4915940;29;20424;-73
2022/01/13 09:30:32;;;;;;;5.63;3.07;;;2.60;96.30;;;;;;4914584;29;20203;-74
2022/01/13 09:32:58;;;;;;;7.27;3.10;;;2.70;96.30;;;;;;4915854;29;20468;-73
2022/01/13 09:35:24;;;;;;;7.27;3.30;;;2.80;96.30;;;;;;4907592;29;20428;-74
2022/01/13 09:37:50;;;;;;;5.90;3.10;;;2.90;96.30;;;;;;4896948;29;20689;-72
2022/01/13 09:40:16;;;;;;;8.33;3.27;;;2.90;96.30;;;;;;4896585;29;20659;-72
2022/01/13 09:42:43;;;;;;;7.10;2.97;;;3.00;96.30;;;;;;4896630;29;20414;-72
2022/01/13 09:45:11;;;;;;;6.23;3.00;;;3.20;96.30;;;;;;4896492;29;20833;-73
2022/01/13 09:47:38;;;;;;;5.97;3.40;;;3.50;96.30;;;;;;4896685;29;20452;-72
2022/01/13 09:50:09;;;;;;;8.27;3.10;;;3.50;96.30;;;;;;4896848;29;20421;-72
2022/01/13 09:52:35;;;;;;;4.93;2.73;;;3.70;96.30;;;;;;4898507;29;20552;-72
2022/01/13 09:55:00;;;;;;;7.20;3.17;;;3.70;96.30;;;;;;4900566;29;20496;-72
2022/01/13 09:57:26;;;;;;;6.40;2.67;;;3.80;96.30;;;;;;4900595;29;20180;-72
2022/01/13 09:59:54;;;;;;;4.80;2.90;;;3.70;96.30;;;;;;4900457;29;20168;-73
2022/01/13 10:02:19;;;;;;;6.60;2.73;;;3.90;96.30;;;;;;4900601;29;20201;-72
2022/01/13 10:04:50;;;;;;;8.67;3.13;;;4.10;96.30;;;;;;4900263;29;20996;-72
2022/01/13 10:07:31;;;;;;;9.67;2.90;;;4.20;96.30;;;;;;4900543;29;20264;-72
2022/01/13 10:09:59;;;;;;;5.80;2.60;;;4.20;96.30;;;;;;4911707;29;20416;-72
2022/01/13 10:12:33;;;;;;;7.60;2.57;;;4.30;96.30;;;;;;4918905;29;20514;-72
2022/01/13 10:17:45;;;;;;;5.63;1.83;;;4.20;96.30;;;;;;4919412;29;20416;-72
2022/01/13 10:20:12;;;;;;;4.43;2.43;;;4.20;96.30;;;;;;4919022;29;20506;-71
2022/01/13 10:22:38;;;;;;;6.13;2.80;;;4.10;96.30;;;;;;4918963;29;20504;-71
2022/01/13 10:25:04;;;;;;;6.33;2.60;;;3.90;96.30;;;;;;4918781;29;20511;-71
2022/01/13 10:27:32;;;;;;;3.60;2.10;;;3.90;96.30;;;;;;4918822;29;20196;-71
2022/01/13 10:30:13;;;;;;;5.70;2.77;;;3.90;96.30;;;;;;4918898;29;20292;-71
2022/01/13 10:32:41;;;;;;;5.50;2.23;;;4.10;96.30;;;;;;4918710;29;20495;-72
2022/01/13 10:35:07;;;;;;;5.07;2.13;;;4.40;96.30;;;;;;4912753;29;20516;-72
2022/01/13 10:37:35;;;;;;;2.70;1.93;;;4.80;96.30;;;;;;4900050;29;20505;-73
2022/01/13 10:40:05;;;;;;;7.90;2.23;;;5.00;96.30;;;;;;4900012;29;20977;-72
2022/01/13 10:44:59;;;;;;;5.30;2.07;;;5.90;96.30;;;;;;4899670;29;20409;-72
2022/01/13 10:47:27;;;;;;;4.80;1.83;;;6.10;96.30;;;;;;4899794;29;20417;-72
2022/01/13 10:49:53;;;;;;;6.53;2.00;;;6.10;96.30;;;;;;4899638;29;20413;-72
2022/01/13 10:52:24;;;;;;;3.20;1.80;;;6.10;96.30;;;;;;4899604;29;20855;-72
2022/01/13 10:54:58;;;;;;;6.53;1.93;;;5.80;96.30;;;;;;4899591;29;20229;-72
2022/01/13 10:57:25;;;;;;;6.07;2.17;;;5.50;96.30;;;;;;4899483;29;20495;-73
2022/01/13 10:59:51;;;;;;;10.27;2.40;;;5.40;96.30;;;;;;4899590;29;20413;-72
2022/01/13 11:02:18;;;;;;;7.13;2.83;;;5.30;96.30;;;;;;4899271;29;20425;-72
2022/01/13 11:04:44;;;;;;;4.23;1.87;;;5.60;96.30;;;;;;4898941;29;20476;-73
2022/01/13 11:07:23;;;;;;;6.17;2.50;;;5.70;96.30;;;;;;4899523;29;20413;-73
2022/01/13 11:09:54;;;;;;;3.20;2.20;;;5.90;96.30;;;;;;4909652;29;20184;-72
2022/01/13 11:12:42;;;;;;;4.53;2.20;;;6.30;96.30;;;;;;4918131;29;20779;-72
2022/01/13 11:15:17;;;;;;;8.73;2.93;;;6.10;96.30;;;;;;4918840;29;20413;-73
2022/01/13 11:17:45;;;;;;;4.83;3.00;;;6.10;96.30;;;;;;4918460;29;20813;-73
2022/01/13 13:49:38;;;;;;;4.93;2.20;;;4.50;96.30;;;;;;5432109;23;20494;-76
2022/01/13 13:52:06;;;;;;;5.90;2.17;;;4.50;96.30;;;;;;4898677;29;20447;-74
2022/01/13 13:54:46;;;;;;;4.03;2.00;;;4.50;96.30;;;;;;4898512;29;20851;-76
2022/01/13 13:57:13;;;;;;;3.37;2.03;;;4.50;96.30;;;;;;4915606;29;20476;-76
2022/01/13 13:59:47;;;;;;;2.73;2.30;;;4.40;96.30;;;;;;4915679;29;20420;-76
2022/01/13 14:02:20;;;;;;;2.83;1.70;;;4.40;96.30;;;;;;4898471;29;20527;-76
2022/01/13 14:04:54;;;;;;;5.10;2.30;;;4.50;96.30;;;;;;4915450;29;20956;-76
2022/01/13 14:07:24;;;;;;;2.73;1.83;;;4.40;96.30;;;;;;4915675;29;20456;-73
2022/01/13 14:10:12;;;;;;;6.33;2.20;;;4.40;96.30;;;;;;4915336;29;20416;-75
2022/01/13 14:12:44;;;;;;;2.20;1.47;;;4.30;96.30;;;;;;4915512;29;20550;-76
2022/01/13 14:15:26;;;;;;;3.57;1.60;;;4.40;96.30;;;;;;4898349;29;20848;-75
2022/01/13 14:17:54;;;;;;;2.47;1.53;;;4.40;96.30;;;;;;4915464;29;20420;-75
2022/01/13 14:20:22;;;;;;;3.67;1.77;;;4.30;96.30;;;;;;4915337;29;20422;-76
2022/01/13 14:22:58;;;;;;;3.37;1.93;;;4.30;96.30;;;;;;4915440;29;20741;-73
2022/01/13 14:25:32;;;;;;;5.43;2.07;;;4.40;96.30;;;;;;4898447;29;20503;-74
2022/01/13 14:28:07;;;;;;;3.73;1.60;;;4.30;96.30;;;;;;4915560;29;20413;-74
2022/01/13 14:30:37;;;;;;;2.33;1.77;;;4.30;96.30;;;;;;4899423;29;20452;-73
2022/01/13 14:33:24;;;;;;;3.93;1.70;;;4.40;96.30;;;;;;4896615;29;20453;-77
2022/01/13 14:36:08;;;;;;;5.73;1.83;;;4.30;96.30;;;;;;4907686;29;20417;-76
2022/01/13 14:38:36;;;;;;;4.70;1.70;;;4.30;96.30;;;;;;4899426;29;20443;-77
2022/01/13 14:41:03;;;;;;;5.00;1.90;;;4.30;96.30;;;;;;4915702;29;20440;-76
2022/01/13 14:43:28;;;;;;;3.57;1.90;;;4.20;96.30;;;;;;4905434;29;20494;-76
2022/01/13 14:46:02;;;;;;;2.03;1.83;;;4.20;96.30;;;;;;4904890;29;20545;-76
2022/01/13 14:48:28;;;;;;;2.87;1.77;;;4.20;96.30;;;;;;4907945;29;20224;-76
2022/01/13 14:51:06;;;;;;;3.97;2.17;;;4.20;96.30;;;;;;4899070;29;20498;-77
2022/01/13 14:53:33;;;;;;;4.30;2.43;;;4.20;96.30;;;;;;4918257;29;20255;-75
2022/01/13 14:55:58;;;;;;;4.47;1.93;;;4.30;96.30;;;;;;4918308;29;20424;-76
2022/01/13 14:58:24;;;;;;;3.53;1.70;;;4.20;96.30;;;;;;4901292;29;20427;-76
2022/01/13 15:00:49;;;;;;;5.60;2.00;;;4.20;96.30;;;;;;4903340;29;20344;-75
2022/01/13 15:03:15;;;;;;;3.40;2.37;;;4.20;96.30;;;;;;4908067;29;20198;-76
2022/01/13 15:05:40;;;;;;;2.43;2.20;;;4.10;96.30;;;;;;4898107;29;20183;-76
2022/01/13 15:08:06;;;;;;;2.80;2.03;;;4.10;96.30;;;;;;4906716;29;20174;-76
2022/01/13 15:10:31;;;;;;;5.03;2.80;;;4.10;96.30;;;;;;4889579;29;20690;-77
2022/01/13 15:12:57;;;;;;;2.90;1.87;;;4.10;96.30;;;;;;4899053;29;20688;-76
2022/01/13 15:15:22;;;;;;;2.20;1.77;;;4.10;96.30;;;;;;4895262;29;20176;-77
2022/01/13 15:17:48;;;;;;;4.27;2.20;;;4.00;96.30;;;;;;4918089;29;20682;-77
2022/01/13 15:20:14;;;;;;;3.40;2.70;;;3.90;96.30;;;;;;4917780;29;20180;-77
2022/01/13 15:22:40;;;;;;;3.20;2.10;;;4.00;96.30;;;;;;4916584;29;20169;-77
2022/01/13 15:25:06;;;;;;;4.57;1.83;;;4.10;96.30;;;;;;4916505;29;20471;-76
2022/01/13 15:27:32;;;;;;;3.37;1.67;;;4.10;96.30;;;;;;4901035;29;20507;-76
2022/01/13 15:29:57;;;;;;;4.37;2.50;;;4.00;96.30;;;;;;4911842;29;20200;-77
2022/01/13 15:32:23;;;;;;;4.70;2.27;;;4.00;96.30;;;;;;4908776;29;20204;-76
2022/01/13 15:34:48;;;;;;;19.13;2.67;;;4.00;96.30;;;;;;4901936;29;20177;-76
2022/01/13 15:37:14;;;;;;;7.43;2.40;;;4.00;96.30;;;;;;4917752;29;20180;-77
2022/01/13 15:39:39;;;;;;;3.33;1.90;;;3.90;96.30;;;;;;4916159;29;20203;-77
2022/01/13 15:42:05;;;;;;;3.30;2.20;;;4.00;96.30;;;;;;4900578;29;20204;-77
2022/01/13 15:44:31;;;;;;;3.67;2.20;;;4.00;96.30;;;;;;4917311;29;20267;-77
2022/01/13 15:46:57;;;;;;;3.57;2.10;;;3.90;96.30;;;;;;4909172;29;20448;-76
2022/01/13 15:49:23;;;;;;;9.83;4.53;;;4.00;96.30;;;;;;4882179;29;20296;-77
2022/01/13 15:51:49;;;;;;;4.83;2.60;;;4.00;96.30;;;;;;4900300;29;20535;-77
2022/01/13 15:54:15;;;;;;;3.43;1.70;;;4.00;96.30;;;;;;4917261;29;20207;-78
2022/01/13 15:56:40;;;;;;;4.13;2.27;;;4.00;96.30;;;;;;4908158;29;20416;-78
2022/01/13 15:59:06;;;;;;;9.83;3.20;;;4.10;96.30;;;;;;4908102;29;20181;-78
2022/01/13 16:01:31;;;;;;;4.67;2.30;;;4.00;96.30;;;;;;4898787;29;20276;-77
2022/01/13 16:03:57;;;;;;;4.77;2.20;;;4.00;96.30;;;;;;4899319;29;20180;-78
2022/01/13 16:06:23;;;;;;;2.17;1.97;;;4.00;96.30;;;;;;4881797;29;20185;-77
2022/01/13 16:08:48;;;;;;;2.37;1.70;;;4.00;96.30;;;;;;4899553;29;20183;-77
2022/01/13 16:11:14;;;;;;;3.93;2.33;;;4.00;96.30;;;;;;4919612;29;20436;-78
2022/01/13 16:13:43;;;;;;;2.63;2.17;;;4.00;96.30;;;;;;4919104;29;20204;-79
2022/01/13 16:16:09;;;;;;;2.33;1.87;;;4.10;96.30;;;;;;4885500;29;20264;-78
2022/01/13 16:18:37;;;;;;;3.73;2.30;;;4.10;96.30;;;;;;4915729;29;20460;-77
2022/01/13 16:21:03;;;;;;;2.70;1.93;;;4.00;96.30;;;;;;4918203;29;20200;-78
2022/01/13 16:23:28;;;;;;;2.53;1.97;;;4.10;96.30;;;;;;4916953;29;20443;-78
2022/01/13 16:25:54;;;;;;;2.23;1.60;;;4.10;96.30;;;;;;4900165;29;20215;-79
2022/01/13 16:28:20;;;;;;;3.77;1.60;;;4.10;96.30;;;;;;4900016;29;20191;-79
2022/01/13 16:30:47;;;;;;;2.00;1.80;;;4.10;96.30;;;;;;4915374;29;20440;-78
2022/01/13 16:33:13;;;;;;;2.90;1.63;;;4.00;96.30;;;;;;4889091;29;20672;-77
2022/01/13 16:35:39;;;;;;;3.00;1.43;;;4.00;96.30;;;;;;4905161;29;20465;-79
2022/01/13 16:38:05;;;;;;;5.33;2.27;;;4.00;96.30;;;;;;4891740;29;20192;-79
2022/01/13 16:40:35;;;;;;;3.20;2.40;;;4.10;96.30;;;;;;4905988;29;20551;-79
2022/01/13 16:43:03;;;;;;;4.27;2.20;;;4.00;96.30;;;;;;4916317;29;20176;-78
2022/01/13 16:45:32;;;;;;;4.13;2.37;;;4.00;96.30;;;;;;4902646;29;20445;-79
2022/01/13 16:47:58;;;;;;;2.10;1.83;;;4.10;96.30;;;;;;4907874;29;20425;-78
2022/01/13 16:50:25;;;;;;;5.83;1.90;;;4.20;96.30;;;;;;4893763;29;20438;-80
2022/01/13 16:52:51;;;;;;;2.80;1.90;;;4.20;96.30;;;;;;4886114;29;20944;-80
2022/01/13 16:55:18;;;;;;;7.10;2.30;;;4.10;96.30;;;;;;4886823;29;20424;-80
2022/01/13 16:57:43;;;;;;;2.80;1.93;;;4.10;96.30;;;;;;4898547;29;20511;-79
2022/01/13 17:00:11;;;;;;;5.00;2.37;;;4.20;96.30;;;;;;4892279;29;21072;-80
2022/01/13 17:02:38;;;;;;;3.20;1.77;;;4.10;96.30;;;;;;4886821;29;20542;-80
2022/01/13 17:05:05;;;;;;;6.97;2.00;;;4.20;96.30;;;;;;4899934;29;20468;-80
2022/01/13 17:07:34;;;;;;;2.60;2.07;;;4.20;96.30;;;;;;4890215;29;20468;-80
2022/01/13 17:10:00;;;;;;;4.20;2.37;;;4.20;96.30;;;;;;4907114;29;20491;-78
2022/01/13 17:12:26;;;;;;;3.33;2.07;;;4.20;96.30;;;;;;4899998;29;20452;-80
2022/01/13 17:14:51;;;;;;;6.30;2.37;;;4.20;96.30;;;;;;4900752;29;20180;-79
2022/01/13 17:17:17;;;;;;;2.53;1.73;;;4.10;96.30;;;;;;4917013;29;20168;-79
2022/01/13 17:19:43;;;;;;;4.17;2.30;;;4.10;96.30;;;;;;4900202;29;20187;-79
2022/01/13 17:27:19;;;;;;;3.40;2.17;;;4.20;96.30;;;;;;5285578;23;20554;-78
2022/01/13 17:29:45;;;;;;;2.27;1.70;;;4.10;96.30;;;;;;4928291;29;20428;-79
2022/01/13 17:32:10;;;;;;;3.97;2.70;;;4.20;96.30;;;;;;4914824;29;20199;-77
2022/01/13 17:34:36;;;;;;;3.17;2.10;;;4.10;96.30;;;;;;4900496;29;20208;-78
2022/01/13 17:37:01;;;;;;;3.20;2.50;;;4.10;96.30;;;;;;4918023;29;20647;-78
2022/01/13 17:39:27;;;;;;;3.90;2.37;;;4.10;96.30;;;;;;4934829;29;20696;-80
2022/01/13 17:41:54;;;;;;;4.33;2.00;;;4.30;96.30;;;;;;4917724;29;20562;-79
2022/01/13 17:44:19;;;;;;;3.30;2.13;;;4.20;96.30;;;;;;4914027;29;20254;-78
2022/01/13 17:46:45;;;;;;;5.50;2.60;;;4.20;96.30;;;;;;4928751;29;20526;-79
2022/01/13 17:49:11;;;;;;;2.20;1.80;;;4.10;96.30;;;;;;4934407;29;20207;-79
2022/01/13 17:51:37;;;;;;;3.93;2.13;;;4.10;96.30;;;;;;4917917;29;20211;-79
2022/01/13 17:54:03;;;;;;;2.23;1.93;;;4.10;96.30;;;;;;4915235;29;20455;-77
2022/01/13 17:56:29;;;;;;;2.13;1.80;;;4.10;96.30;;;;;;4926257;29;20187;-77
2022/01/13 17:58:56;;;;;;;4.73;2.40;;;4.10;96.30;;;;;;4916994;29;20913;-79
2022/01/13 18:01:21;;;;;;;3.47;2.50;;;4.00;96.30;;;;;;4915223;29;20222;-76
2022/01/13 18:03:47;;;;;;;3.80;2.30;;;3.80;96.30;;;;;;4925913;29;20934;-77
2022/01/13 18:06:13;;;;;;;3.30;2.63;;;3.70;96.30;;;;;;4933482;29;20785;-77
2022/01/13 18:08:38;;;;;;;8.17;3.40;;;3.80;96.30;;;;;;4917097;29;20179;-79
2022/01/13 18:11:05;;;;;;;4.17;2.90;;;3.80;96.30;;;;;;4917193;29;20742;-77
2022/01/13 18:13:32;;;;;;;4.30;2.90;;;3.80;96.30;;;;;;4917867;29;20207;-76
2022/01/13 18:15:58;;;;;;;4.80;2.77;;;3.80;96.30;;;;;;4927035;29;20506;-77
2022/01/13 18:18:24;;;;;;;3.93;2.87;;;3.80;96.30;;;;;;4937985;29;20403;-77
2022/01/13 18:20:49;;;;;;;4.37;2.40;;;3.80;96.30;;;;;;4930201;29;20236;-76
2022/01/13 18:23:15;;;;;;;3.07;2.70;;;3.80;96.30;;;;;;4919878;29;20185;-77
2022/01/13 18:25:41;;;;;;;5.03;3.10;;;3.80;96.30;;;;;;4920493;29;20210;-78
2022/01/13 18:28:07;;;;;;;5.60;2.57;;;3.80;96.30;;;;;;4920612;29;21032;-80
2022/01/13 18:30:33;;;;;;;4.43;3.07;;;3.80;96.30;;;;;;4920693;29;20215;-77
2022/01/13 18:33:00;;;;;;;6.93;2.53;;;3.80;96.30;;;;;;4937462;29;20478;-77
2022/01/13 18:35:26;;;;;;;6.33;2.83;;;3.70;96.30;;;;;;4929035;29;20649;-77
2022/01/13 18:37:52;;;;;;;2.90;2.37;;;3.60;96.30;;;;;;4918487;29;20904;-76
2022/01/13 18:40:18;;;;;;;5.47;2.40;;;3.70;96.30;;;;;;4901509;29;20416;-79
2022/01/13 18:42:50;;;;;;;5.60;2.47;;;3.70;96.30;;;;;;4930094;29;20246;-79
2022/01/13 18:45:22;;;;;;;3.67;2.87;;;3.80;96.30;;;;;;4937186;29;20779;-77
2022/01/13 18:47:59;;;;;;;4.27;2.90;;;3.90;96.30;;;;;;4937334;29;20424;-77
2022/01/13 18:50:30;;;;;;;5.10;3.23;;;3.90;96.30;;;;;;4937443;29;20905;-77
2022/01/13 18:52:56;;;;;;;3.43;2.57;;;3.80;96.30;;;;;;4906632;29;20474;-80
2022/01/13 18:55:21;;;;;;;3.97;2.50;;;3.90;96.30;;;;;;4901114;29;20428;-78
2022/01/13 18:57:47;;;;;;;4.37;2.70;;;3.90;96.30;;;;;;4901805;29;20183;-78
2022/01/13 19:00:14;;;;;;;4.80;3.33;;;3.90;96.30;;;;;;4913677;29;20191;-79
2022/01/13 19:02:40;;;;;;;4.53;2.90;;;3.80;96.30;;;;;;4920244;29;20631;-79
2022/01/13 19:05:06;;;;;;;4.40;3.00;;;3.80;96.30;;;;;;4920237;29;21179;-78
2022/01/13 19:07:32;;;;;;;3.97;3.00;;;3.90;96.30;;;;;;4937612;29;20404;-77
2022/01/13 19:09:57;;;;;;;4.53;2.40;;;3.80;96.30;;;;;;4920296;29;21159;-77
2022/01/13 19:12:23;;;;;;;3.30;2.77;;;3.80;96.30;;;;;;4937039;29;20549;-77
2022/01/13 19:14:49;;;;;;;4.20;3.23;;;3.90;96.30;;;;;;4929833;29;20183;-77
2022/01/13 19:17:30;;;;;;;4.80;3.30;;;4.00;96.30;;;;;;4927228;29;20258;-80
2022/01/13 19:19:55;;;;;;;4.07;2.73;;;4.00;96.30;;;;;;4937249;29;20152;-77
2022/01/13 19:22:21;;;;;;;4.00;3.60;;;4.00;96.30;;;;;;4936985;29;20810;-78
2022/01/13 19:24:46;;;;;;;4.13;2.77;;;3.90;96.30;;;;;;4936785;29;20586;-81
2022/01/13 19:27:12;;;;;;;5.13;3.07;;;3.80;96.30;;;;;;4919187;29;20199;-78
2022/01/13 19:29:38;;;;;;;5.60;2.87;;;3.70;96.30;;;;;;4931502;29;20179;-78
2022/01/13 19:32:04;;;;;;;3.70;3.30;;;3.70;96.30;;;;;;4925312;29;20452;-78
2022/01/13 19:34:29;;;;;;;7.30;4.07;;;3.70;96.30;;;;;;4917401;29;20208;-84
2022/01/13 19:36:55;;;;;;;7.40;4.17;;;3.70;96.30;;;;;;4937132;29;20222;-77
2022/01/13 19:39:20;;;;;;;5.07;4.07;;;3.70;96.30;;;;;;4936997;29;20836;-77
2022/01/13 19:41:47;;;;;;;4.83;4.23;;;3.70;96.30;;;;;;4936878;29;20195;-78
2022/01/13 19:44:13;;;;;;;5.30;3.50;;;3.60;96.30;;;;;;4919564;29;20175;-78
2022/01/13 19:46:38;;;;;;;5.47;3.50;;;3.60;96.30;;;;;;4919789;29;20559;-77
2022/01/13 19:49:04;;;;;;;5.40;3.80;;;3.50;96.30;;;;;;4920806;29;20186;-79
2022/01/13 19:51:29;;;;;;;5.60;3.60;;;3.50;96.30;;;;;;4938306;29;20672;-81
2022/01/13 19:53:55;;;;;;;4.77;3.90;;;3.50;96.30;;;;;;4919850;29;20291;-80
2022/01/13 19:56:21;;;;;;;11.40;4.40;;;3.50;96.30;;;;;;4936973;29;20171;-80
2022/01/13 19:58:47;;;;;;;4.57;3.67;;;3.50;96.30;;;;;;4920577;29;20184;-80
2022/01/13 20:01:13;;;;;;;5.27;4.17;;;3.50;96.30;;;;;;4920711;29;20482;-80
2022/01/13 20:03:39;;;;;;;6.33;3.90;;;3.50;96.30;;;;;;4920375;29;20466;-81
2022/01/13 20:06:05;;;;;;;4.23;3.10;;;3.50;96.30;;;;;;4920450;29;20179;-81
2022/01/13 20:08:31;;;;;;;5.30;2.93;;;3.50;96.30;;;;;;4919149;29;20179;-80
2022/01/13 20:11:00;;;;;;;4.40;3.20;;;3.50;96.30;;;;;;4920424;29;20450;-81
2022/01/13 20:13:27;;;;;;;4.70;3.43;;;3.40;96.30;;;;;;4920081;29;20455;-80
2022/01/13 20:15:53;;;;;;;3.77;3.20;;;3.40;96.30;;;;;;4920426;29;20431;-80
2022/01/13 20:18:19;;;;;;;5.53;3.83;;;3.30;96.30;;;;;;4936016;29;20435;-78
2022/01/13 20:20:45;;;;;;;6.47;3.90;;;3.30;96.30;;;;;;4936226;29;20191;-79